This is the latest recevied weather packets stored in our database for station/object N5ZP. If no packets are shown the sender has not sent any weather packets the latest 1 day(s).
| Time | Temp. | Humidity | Pressure | Rain* | Wind** | Luminosity | Snow |
|---|---|---|---|---|---|---|---|
| 1836274594 | 26.11° C | 68% | 1013.3 hPa | 0 mm | 0.89 m/s, 200° | 0 W/m² | - |
| 1836274447 | 26.11° C | 68% | 1013.1 hPa | 0 mm | 0 m/s | 0 W/m² | - |
| 1836274292 | 26.11° C | 69% | 1013 hPa | 0 mm | 0 m/s | 0 W/m² | - |
| 1836274145 | 26.11° C | 68% | 1013 hPa | 0 mm | 0 m/s | 0 W/m² | - |
| 1836273991 | 25.56° C | 70% | 1013.2 hPa | 0 mm | 0.45 m/s, 218° | 0 W/m² | - |
| 1778044532 | 15.56° C | 79% | 1007.2 hPa | 0 mm | 1.34 m/s, 272° | 0 W/m² | - |
| 1778044228 | 15.56° C | 78% | 1007.5 hPa | 0 mm | 1.34 m/s, 17° | 0 W/m² | - |
| 1778043926 | 15.56° C | 78% | 1007.5 hPa | 0 mm | 1.34 m/s, 343° | 0 W/m² | - |
| 1778043624 | 15.56° C | 78% | 1007.3 hPa | 0 mm | 2.68 m/s, 347° | 0 W/m² | - |
| 1778043320 | 15.56° C | 78% | 1007.3 hPa | 0 mm | 2.24 m/s, 353° | 0 W/m² | - |
| 1778043017 | 16.11° C | 78% | 1007.3 hPa | 0 mm | 2.24 m/s, 12° | 0 W/m² | - |
| 1778042715 | 16.11° C | 78% | 1007.3 hPa | 0 mm | 1.34 m/s, 308° | 0 W/m² | - |
| 1778042411 | 16.11° C | 78% | 1007.5 hPa | 0 mm | 1.34 m/s, 338° | 0 W/m² | - |
| 1778042108 | 16.11° C | 78% | 1007.3 hPa | 0 mm | 2.68 m/s, 311° | 0 W/m² | - |
| 1778041807 | 16.11° C | 78% | 1007.3 hPa | 0 mm | 2.68 m/s, 1° | 0 W/m² | - |
| 1778041506 | 16.11° C | 78% | 1007.2 hPa | 0 mm | 2.24 m/s, 318° | 0 W/m² | - |
| 1778041203 | 16.67° C | 77% | 1007 hPa | 0 mm | 2.68 m/s, 328° | 0 W/m² | - |
| 1778040901 | 16.67° C | 77% | 1007.1 hPa | 0 mm | 2.24 m/s, 279° | 0 W/m² | - |
| 1778040598 | 16.67° C | 77% | 1007.3 hPa | 0 mm | 1.79 m/s, 276° | 0 W/m² | - |
| 1778040296 | 16.67° C | 76% | 1007.2 hPa | 0 mm | 2.24 m/s, 302° | 0 W/m² | - |
| 1778039991 | 16.67° C | 76% | 1007.1 hPa | 0 mm | 1.34 m/s, 342° | 0 W/m² | - |
| 1778039689 | 16.67° C | 76% | 1007.2 hPa | 0 mm | 1.79 m/s, 357° | 0 W/m² | - |
| 1778039385 | 16.67° C | 75% | 1007.2 hPa | 0 mm | 2.24 m/s, 21° | 0 W/m² | - |
| 1778039083 | 17.22° C | 75% | 1007.1 hPa | 0 mm | 2.24 m/s, 282° | 0 W/m² | - |
| 1778038780 | 17.22° C | 75% | 1007 hPa | 0 mm | 2.68 m/s, 348° | 0 W/m² | - |
* Rain latest hour (hover to see other rain measurements)
** Current wind speed in m/s (hover to see current wind gust speed)